sensor_id;sensor_type;location;lat;lon;timestamp;P1;durP1;ratioP1;P2;durP2;ratioP2
76712;SDS011;65640;43.154;25.658;2023-08-24T00:01:02;3.60;;;3.30;;
76712;SDS011;65640;43.154;25.658;2023-08-24T00:03:27;2.83;;;2.63;;
76712;SDS011;65640;43.154;25.658;2023-08-24T00:05:53;3.42;;;2.97;;
76712;SDS011;65640;43.154;25.658;2023-08-24T00:08:19;4.72;;;3.10;;
76712;SDS011;65640;43.154;25.658;2023-08-24T00:10:44;3.17;;;2.97;;
76712;SDS011;65640;43.154;25.658;2023-08-24T00:13:13;3.42;;;2.92;;
76712;SDS011;65640;43.154;25.658;2023-08-24T00:15:38;3.55;;;3.35;;
76712;SDS011;65640;43.154;25.658;2023-08-24T00:18:04;3.70;;;3.47;;
76712;SDS011;65640;43.154;25.658;2023-08-24T00:20:30;3.33;;;3.13;;
76712;SDS011;65640;43.154;25.658;2023-08-24T00:22:57;3.53;;;3.33;;
76712;SDS011;65640;43.154;25.658;2023-08-24T00:25:24;3.30;;;3.10;;
76712;SDS011;65640;43.154;25.658;2023-08-24T00:27:50;4.45;;;3.63;;
76712;SDS011;65640;43.154;25.658;2023-08-24T00:30:18;4.03;;;3.72;;
76712;SDS011;65640;43.154;25.658;2023-08-24T00:32:43;3.65;;;3.38;;
76712;SDS011;65640;43.154;25.658;2023-08-24T00:35:09;3.45;;;3.25;;
76712;SDS011;65640;43.154;25.658;2023-08-24T00:37:35;3.75;;;3.40;;
76712;SDS011;65640;43.154;25.658;2023-08-24T00:40:01;4.25;;;3.95;;
76712;SDS011;65640;43.154;25.658;2023-08-24T00:42:41;3.95;;;3.65;;
76712;SDS011;65640;43.154;25.658;2023-08-24T00:45:08;3.50;;;3.30;;
76712;SDS011;65640;43.154;25.658;2023-08-24T00:47:36;4.88;;;3.80;;
76712;SDS011;65640;43.154;25.658;2023-08-24T00:50:03;3.50;;;3.20;;
76712;SDS011;65640;43.154;25.658;2023-08-24T00:54:57;4.13;;;3.55;;
76712;SDS011;65640;43.154;25.658;2023-08-24T00:57:25;6.30;;;3.85;;
76712;SDS011;65640;43.154;25.658;2023-08-24T00:59:56;7.65;;;3.90;;
76712;SDS011;65640;43.154;25.658;2023-08-24T01:02:24;4.70;;;3.70;;
76712;SDS011;65640;43.154;25.658;2023-08-24T01:04:49;4.45;;;4.07;;
76712;SDS011;65640;43.154;25.658;2023-08-24T01:07:15;4.43;;;3.80;;
76712;SDS011;65640;43.154;25.658;2023-08-24T01:09:42;5.32;;;3.90;;
76712;SDS011;65640;43.154;25.658;2023-08-24T01:17:35;3.88;;;3.58;;
76712;SDS011;65640;43.154;25.658;2023-08-24T01:20:03;4.30;;;4.00;;
76712;SDS011;65640;43.154;25.658;2023-08-24T01:22:37;4.47;;;4.18;;
76712;SDS011;65640;43.154;25.658;2023-08-24T01:25:12;4.25;;;3.88;;
76712;SDS011;65640;43.154;25.658;2023-08-24T01:27:41;5.05;;;4.65;;
76712;SDS011;65640;43.154;25.658;2023-08-24T01:30:08;5.10;;;4.35;;
76712;SDS011;65640;43.154;25.658;2023-08-24T01:32:34;4.47;;;4.07;;
76712;SDS011;65640;43.154;25.658;2023-08-24T01:35:03;5.50;;;5.05;;
76712;SDS011;65640;43.154;25.658;2023-08-24T01:37:31;4.40;;;4.00;;
76712;SDS011;65640;43.154;25.658;2023-08-24T01:40:05;5.15;;;4.15;;
76712;SDS011;65640;43.154;25.658;2023-08-24T01:42:35;6.13;;;4.05;;
76712;SDS011;65640;43.154;25.658;2023-08-24T01:45:05;4.63;;;4.22;;
76712;SDS011;65640;43.154;25.658;2023-08-24T01:47:33;4.68;;;4.28;;
76712;SDS011;65640;43.154;25.658;2023-08-24T01:50:00;4.15;;;3.85;;
76712;SDS011;65640;43.154;25.658;2023-08-24T01:52:27;4.22;;;3.92;;
76712;SDS011;65640;43.154;25.658;2023-08-24T01:54:53;5.45;;;4.05;;
76712;SDS011;65640;43.154;25.658;2023-08-24T01:57:18;4.45;;;3.92;;
76712;SDS011;65640;43.154;25.658;2023-08-24T01:59:43;4.72;;;4.28;;
76712;SDS011;65640;43.154;25.658;2023-08-24T02:02:09;7.18;;;4.00;;
76712;SDS011;65640;43.154;25.658;2023-08-24T02:04:34;7.13;;;4.25;;
76712;SDS011;65640;43.154;25.658;2023-08-24T02:07:00;4.07;;;3.70;;
76712;SDS011;65640;43.154;25.658;2023-08-24T02:09:25;5.97;;;4.38;;
76712;SDS011;65640;43.154;25.658;2023-08-24T02:11:50;4.22;;;3.92;;
76712;SDS011;65640;43.154;25.658;2023-08-24T02:14:16;4.28;;;3.97;;
76712;SDS011;65640;43.154;25.658;2023-08-24T02:16:41;4.18;;;3.80;;
76712;SDS011;65640;43.154;25.658;2023-08-24T02:19:07;4.38;;;4.05;;
76712;SDS011;65640;43.154;25.658;2023-08-24T02:21:34;3.83;;;3.53;;
76712;SDS011;65640;43.154;25.658;2023-08-24T02:24:01;4.55;;;4.18;;
76712;SDS011;65640;43.154;25.658;2023-08-24T02:26:26;4.45;;;4.10;;
76712;SDS011;65640;43.154;25.658;2023-08-24T02:28:51;3.50;;;3.20;;
76712;SDS011;65640;43.154;25.658;2023-08-24T02:31:17;4.28;;;3.83;;
76712;SDS011;65640;43.154;25.658;2023-08-24T02:33:42;4.53;;;3.70;;
76712;SDS011;65640;43.154;25.658;2023-08-24T02:36:08;4.53;;;4.22;;
76712;SDS011;65640;43.154;25.658;2023-08-24T02:38:33;4.35;;;3.97;;
76712;SDS011;65640;43.154;25.658;2023-08-24T02:41:02;4.43;;;4.13;;
76712;SDS011;65640;43.154;25.658;2023-08-24T02:43:32;3.80;;;3.50;;
76712;SDS011;65640;43.154;25.658;2023-08-24T02:46:07;4.55;;;3.85;;
76712;SDS011;65640;43.154;25.658;2023-08-24T02:48:33;4.60;;;4.20;;
76712;SDS011;65640;43.154;25.658;2023-08-24T02:50:59;4.32;;;3.80;;
76712;SDS011;65640;43.154;25.658;2023-08-24T02:53:26;5.75;;;4.03;;
76712;SDS011;65640;43.154;25.658;2023-08-24T02:55:52;4.00;;;3.70;;
76712;SDS011;65640;43.154;25.658;2023-08-24T02:58:18;3.88;;;3.53;;
76712;SDS011;65640;43.154;25.658;2023-08-24T03:00:44;4.28;;;3.88;;
76712;SDS011;65640;43.154;25.658;2023-08-24T03:03:09;4.85;;;3.78;;
76712;SDS011;65640;43.154;25.658;2023-08-24T03:05:36;4.15;;;3.85;;
76712;SDS011;65640;43.154;25.658;2023-08-24T03:08:01;4.60;;;4.20;;
76712;SDS011;65640;43.154;25.658;2023-08-24T03:10:29;4.10;;;3.80;;
76712;SDS011;65640;43.154;25.658;2023-08-24T03:12:55;4.78;;;4.45;;
76712;SDS011;65640;43.154;25.658;2023-08-24T03:15:20;4.10;;;3.80;;
76712;SDS011;65640;43.154;25.658;2023-08-24T03:17:46;4.22;;;3.92;;
76712;SDS011;65640;43.154;25.658;2023-08-24T03:20:12;3.92;;;3.70;;
76712;SDS011;65640;43.154;25.658;2023-08-24T03:22:37;4.43;;;4.03;;
76712;SDS011;65640;43.154;25.658;2023-08-24T03:25:03;3.97;;;3.55;;
76712;SDS011;65640;43.154;25.658;2023-08-24T03:27:29;4.53;;;4.22;;
76712;SDS011;65640;43.154;25.658;2023-08-24T03:29:55;4.80;;;3.55;;
76712;SDS011;65640;43.154;25.658;2023-08-24T03:32:20;4.18;;;3.78;;
76712;SDS011;65640;43.154;25.658;2023-08-24T03:34:45;4.25;;;3.85;;
76712;SDS011;65640;43.154;25.658;2023-08-24T03:37:11;4.32;;;4.03;;
76712;SDS011;65640;43.154;25.658;2023-08-24T03:39:37;4.57;;;4.13;;
76712;SDS011;65640;43.154;25.658;2023-08-24T03:42:03;4.20;;;3.85;;
76712;SDS011;65640;43.154;25.658;2023-08-24T03:44:29;4.80;;;4.40;;
76712;SDS011;65640;43.154;25.658;2023-08-24T03:46:54;4.43;;;4.03;;
76712;SDS011;65640;43.154;25.658;2023-08-24T03:49:21;4.95;;;3.80;;
76712;SDS011;65640;43.154;25.658;2023-08-24T03:51:47;4.25;;;3.95;;
76712;SDS011;65640;43.154;25.658;2023-08-24T03:54:13;4.68;;;4.28;;
76712;SDS011;65640;43.154;25.658;2023-08-24T03:56:39;4.28;;;3.97;;
76712;SDS011;65640;43.154;25.658;2023-08-24T03:59:04;4.90;;;4.45;;
76712;SDS011;65640;43.154;25.658;2023-08-24T04:01:30;5.38;;;4.57;;
76712;SDS011;65640;43.154;25.658;2023-08-24T04:03:55;4.63;;;4.32;;
76712;SDS011;65640;43.154;25.658;2023-08-24T04:06:20;4.80;;;3.95;;
76712;SDS011;65640;43.154;25.658;2023-08-24T04:08:46;7.00;;;4.55;;
76712;SDS011;65640;43.154;25.658;2023-08-24T04:11:11;4.15;;;3.75;;
76712;SDS011;65640;43.154;25.658;2023-08-24T04:13:37;4.05;;;3.75;;
76712;SDS011;65640;43.154;25.658;2023-08-24T04:16:02;5.03;;;4.45;;
76712;SDS011;65640;43.154;25.658;2023-08-24T04:20:54;4.45;;;4.05;;
76712;SDS011;65640;43.154;25.658;2023-08-24T04:23:23;4.63;;;4.22;;
76712;SDS011;65640;43.154;25.658;2023-08-24T04:25:50;4.68;;;4.28;;
76712;SDS011;65640;43.154;25.658;2023-08-24T04:28:16;4.35;;;4.05;;
76712;SDS011;65640;43.154;25.658;2023-08-24T04:30:48;4.65;;;4.20;;
76712;SDS011;65640;43.154;25.658;2023-08-24T04:33:14;5.72;;;4.65;;
76712;SDS011;65640;43.154;25.658;2023-08-24T04:35:40;5.03;;;4.60;;
76712;SDS011;65640;43.154;25.658;2023-08-24T04:38:05;4.72;;;4.32;;
76712;SDS011;65640;43.154;25.658;2023-08-24T04:40:43;7.03;;;4.85;;
76712;SDS011;65640;43.154;25.658;2023-08-24T04:43:19;4.75;;;4.35;;
76712;SDS011;65640;43.154;25.658;2023-08-24T04:45:46;9.65;;;4.70;;
76712;SDS011;65640;43.154;25.658;2023-08-24T04:48:13;4.55;;;4.15;;
76712;SDS011;65640;43.154;25.658;2023-08-24T04:50:38;4.18;;;3.88;;
76712;SDS011;65640;43.154;25.658;2023-08-24T04:53:04;5.90;;;5.40;;
76712;SDS011;65640;43.154;25.658;2023-08-24T04:55:31;5.57;;;5.07;;
76712;SDS011;65640;43.154;25.658;2023-08-24T04:57:56;6.57;;;5.18;;
76712;SDS011;65640;43.154;25.658;2023-08-24T05:00:21;19.58;;;10.05;;
76712;SDS011;65640;43.154;25.658;2023-08-24T05:05:13;31.88;;;14.85;;
76712;SDS011;65640;43.154;25.658;2023-08-24T05:07:39;14.95;;;8.90;;
76712;SDS011;65640;43.154;25.658;2023-08-24T05:12:31;5.55;;;4.63;;
76712;SDS011;65640;43.154;25.658;2023-08-24T05:14:58;4.97;;;4.57;;
76712;SDS011;65640;43.154;25.658;2023-08-24T05:17:24;5.25;;;4.68;;
76712;SDS011;65640;43.154;25.658;2023-08-24T05:19:52;5.40;;;4.93;;
76712;SDS011;65640;43.154;25.658;2023-08-24T05:22:18;12.00;;;5.50;;
76712;SDS011;65640;43.154;25.658;2023-08-24T05:24:44;22.55;;;6.15;;
76712;SDS011;65640;43.154;25.658;2023-08-24T05:27:09;12.05;;;5.18;;
76712;SDS011;65640;43.154;25.658;2023-08-24T05:29:35;5.15;;;4.63;;
76712;SDS011;65640;43.154;25.658;2023-08-24T05:32:00;5.00;;;4.55;;
76712;SDS011;65640;43.154;25.658;2023-08-24T05:34:26;8.05;;;4.85;;
76712;SDS011;65640;43.154;25.658;2023-08-24T05:36:51;5.53;;;5.05;;
76712;SDS011;65640;43.154;25.658;2023-08-24T05:39:16;5.10;;;4.57;;
76712;SDS011;65640;43.154;25.658;2023-08-24T05:41:42;4.70;;;4.07;;
76712;SDS011;65640;43.154;25.658;2023-08-24T05:44:07;9.07;;;4.53;;
76712;SDS011;65640;43.154;25.658;2023-08-24T05:48:58;11.70;;;4.63;;
76712;SDS011;65640;43.154;25.658;2023-08-24T05:51:27;4.63;;;4.22;;
76712;SDS011;65640;43.154;25.658;2023-08-24T05:56:23;5.63;;;4.75;;
76712;SDS011;65640;43.154;25.658;2023-08-24T05:58:48;5.75;;;4.55;;
76712;SDS011;65640;43.154;25.658;2023-08-24T06:03:39;4.78;;;4.38;;
76712;SDS011;65640;43.154;25.658;2023-08-24T06:08:30;6.28;;;5.03;;
76712;SDS011;65640;43.154;25.658;2023-08-24T06:10:56;5.75;;;5.25;;
76712;SDS011;65640;43.154;25.658;2023-08-24T06:13:22;5.72;;;5.20;;
76712;SDS011;65640;43.154;25.658;2023-08-24T06:18:13;4.78;;;4.38;;
76712;SDS011;65640;43.154;25.658;2023-08-24T06:23:04;4.53;;;4.13;;
76712;SDS011;65640;43.154;25.658;2023-08-24T06:25:30;4.70;;;4.30;;
76712;SDS011;65640;43.154;25.658;2023-08-24T06:27:56;4.43;;;4.20;;
76712;SDS011;65640;43.154;25.658;2023-08-24T06:30:23;4.70;;;4.30;;
76712;SDS011;65640;43.154;25.658;2023-08-24T06:35:15;4.40;;;4.10;;
76712;SDS011;65640;43.154;25.658;2023-08-24T06:40:06;6.38;;;4.65;;
76712;SDS011;65640;43.154;25.658;2023-08-24T06:42:32;5.32;;;4.82;;
76712;SDS011;65640;43.154;25.658;2023-08-24T06:47:22;4.90;;;4.50;;
76712;SDS011;65640;43.154;25.658;2023-08-24T06:52:13;6.80;;;4.78;;
76712;SDS011;65640;43.154;25.658;2023-08-24T06:57:04;5.45;;;5.05;;
76712;SDS011;65640;43.154;25.658;2023-08-24T07:01:55;4.82;;;4.53;;
76712;SDS011;65640;43.154;25.658;2023-08-24T07:06:46;4.97;;;4.57;;
76712;SDS011;65640;43.154;25.658;2023-08-24T07:11:36;5.00;;;4.60;;
76712;SDS011;65640;43.154;25.658;2023-08-24T07:14:02;5.38;;;4.95;;
76712;SDS011;65640;43.154;25.658;2023-08-24T07:18:53;5.40;;;5.00;;
76712;SDS011;65640;43.154;25.658;2023-08-24T07:21:18;9.15;;;5.28;;
76712;SDS011;65640;43.154;25.658;2023-08-24T07:26:09;5.25;;;4.80;;
76712;SDS011;65640;43.154;25.658;2023-08-24T07:28:35;7.25;;;4.93;;
76712;SDS011;65640;43.154;25.658;2023-08-24T07:31:09;5.25;;;4.88;;
76712;SDS011;65640;43.154;25.658;2023-08-24T07:33:36;5.22;;;4.88;;
76712;SDS011;65640;43.154;25.658;2023-08-24T07:36:04;5.40;;;4.90;;
76712;SDS011;65640;43.154;25.658;2023-08-24T07:38:30;4.82;;;4.43;;
76712;SDS011;65640;43.154;25.658;2023-08-24T07:40:56;5.82;;;5.03;;
76712;SDS011;65640;43.154;25.658;2023-08-24T07:43:22;4.72;;;4.35;;
76712;SDS011;65640;43.154;25.658;2023-08-24T07:45:48;5.47;;;5.07;;
76712;SDS011;65640;43.154;25.658;2023-08-24T07:48:13;5.40;;;4.95;;
76712;SDS011;65640;43.154;25.658;2023-08-24T07:50:40;5.00;;;4.68;;
76712;SDS011;65640;43.154;25.658;2023-08-24T07:53:06;4.75;;;4.45;;
76712;SDS011;65640;43.154;25.658;2023-08-24T07:55:31;4.97;;;4.47;;
76712;SDS011;65640;43.154;25.658;2023-08-24T07:57:57;5.82;;;5.40;;
76712;SDS011;65640;43.154;25.658;2023-08-24T08:00:22;4.82;;;4.53;;
76712;SDS011;65640;43.154;25.658;2023-08-24T08:02:49;5.00;;;4.70;;
76712;SDS011;65640;43.154;25.658;2023-08-24T08:05:16;5.00;;;4.57;;
76712;SDS011;65640;43.154;25.658;2023-08-24T08:07:41;4.88;;;4.57;;
76712;SDS011;65640;43.154;25.658;2023-08-24T08:10:07;5.63;;;4.90;;
76712;SDS011;65640;43.154;25.658;2023-08-24T08:12:33;4.95;;;4.65;;
76712;SDS011;65640;43.154;25.658;2023-08-24T08:14:59;4.47;;;4.18;;
76712;SDS011;65640;43.154;25.658;2023-08-24T08:17:24;5.15;;;4.75;;
76712;SDS011;65640;43.154;25.658;2023-08-24T08:19:53;5.50;;;5.00;;
76712;SDS011;65640;43.154;25.658;2023-08-24T08:22:20;5.07;;;4.68;;
76712;SDS011;65640;43.154;25.658;2023-08-24T08:24:45;5.13;;;4.82;;
76712;SDS011;65640;43.154;25.658;2023-08-24T08:27:11;4.82;;;4.53;;
76712;SDS011;65640;43.154;25.658;2023-08-24T08:29:36;5.45;;;5.05;;
76712;SDS011;65640;43.154;25.658;2023-08-24T08:32:02;4.90;;;4.60;;
76712;SDS011;65640;43.154;25.658;2023-08-24T08:34:27;4.85;;;4.50;;
76712;SDS011;65640;43.154;25.658;2023-08-24T08:36:52;4.88;;;4.57;;
76712;SDS011;65640;43.154;25.658;2023-08-24T08:39:18;19.20;;;5.43;;
76712;SDS011;65640;43.154;25.658;2023-08-24T08:41:43;5.65;;;4.72;;
76712;SDS011;65640;43.154;25.658;2023-08-24T08:44:12;5.45;;;5.10;;
76712;SDS011;65640;43.154;25.658;2023-08-24T08:46:41;5.88;;;4.57;;
76712;SDS011;65640;43.154;25.658;2023-08-24T08:49:08;5.00;;;4.53;;
76712;SDS011;65640;43.154;25.658;2023-08-24T08:51:35;4.82;;;4.40;;
76712;SDS011;65640;43.154;25.658;2023-08-24T08:54:02;5.28;;;4.93;;
76712;SDS011;65640;43.154;25.658;2023-08-24T08:56:30;5.20;;;4.80;;
76712;SDS011;65640;43.154;25.658;2023-08-24T08:58:56;6.60;;;5.13;;
76712;SDS011;65640;43.154;25.658;2023-08-24T09:01:25;5.63;;;5.10;;
76712;SDS011;65640;43.154;25.658;2023-08-24T09:03:51;5.63;;;5.22;;
76712;SDS011;65640;43.154;25.658;2023-08-24T09:06:17;5.45;;;4.95;;
76712;SDS011;65640;43.154;25.658;2023-08-24T09:08:42;5.20;;;4.90;;
76712;SDS011;65640;43.154;25.658;2023-08-24T09:11:09;6.70;;;5.15;;
76712;SDS011;65640;43.154;25.658;2023-08-24T09:13:35;5.10;;;4.53;;
76712;SDS011;65640;43.154;25.658;2023-08-24T09:16:05;5.00;;;4.60;;
76712;SDS011;65640;43.154;25.658;2023-08-24T09:18:38;5.13;;;4.82;;
76712;SDS011;65640;43.154;25.658;2023-08-24T09:21:08;4.50;;;4.25;;
76712;SDS011;65640;43.154;25.658;2023-08-24T09:23:34;5.15;;;4.85;;
76712;SDS011;65640;43.154;25.658;2023-08-24T09:26:00;5.00;;;4.70;;
76712;SDS011;65640;43.154;25.658;2023-08-24T09:28:25;5.10;;;4.80;;
76712;SDS011;65640;43.154;25.658;2023-08-24T09:30:54;5.13;;;4.63;;
76712;SDS011;65640;43.154;25.658;2023-08-24T09:33:20;5.80;;;5.32;;
76712;SDS011;65640;43.154;25.658;2023-08-24T09:35:52;5.40;;;5.00;;
76712;SDS011;65640;43.154;25.658;2023-08-24T09:38:20;5.45;;;5.00;;
76712;SDS011;65640;43.154;25.658;2023-08-24T09:40:47;6.10;;;5.07;;
76712;SDS011;65640;43.154;25.658;2023-08-24T09:43:16;5.28;;;4.78;;
76712;SDS011;65640;43.154;25.658;2023-08-24T09:45:51;5.28;;;4.88;;
76712;SDS011;65640;43.154;25.658;2023-08-24T09:48:18;5.05;;;4.72;;
76712;SDS011;65640;43.154;25.658;2023-08-24T09:50:47;5.60;;;5.25;;
76712;SDS011;65640;43.154;25.658;2023-08-24T09:53:18;5.88;;;5.38;;
76712;SDS011;65640;43.154;25.658;2023-08-24T09:58:24;4.93;;;4.63;;
76712;SDS011;65640;43.154;25.658;2023-08-24T10:00:50;6.00;;;5.60;;
76712;SDS011;65640;43.154;25.658;2023-08-24T10:03:17;5.53;;;5.13;;
76712;SDS011;65640;43.154;25.658;2023-08-24T10:05:47;5.53;;;5.13;;
76712;SDS011;65640;43.154;25.658;2023-08-24T10:08:15;4.45;;;4.15;;
76712;SDS011;65640;43.154;25.658;2023-08-24T10:10:45;5.00;;;4.60;;
76712;SDS011;65640;43.154;25.658;2023-08-24T10:13:18;4.75;;;4.43;;
76712;SDS011;65640;43.154;25.658;2023-08-24T10:15:48;5.07;;;4.75;;
76712;SDS011;65640;43.154;25.658;2023-08-24T10:18:15;5.35;;;4.95;;
76712;SDS011;65640;43.154;25.658;2023-08-24T10:20:41;4.57;;;4.35;;
76712;SDS011;65640;43.154;25.658;2023-08-24T10:23:10;4.72;;;4.43;;
76712;SDS011;65640;43.154;25.658;2023-08-24T10:25:37;5.32;;;4.40;;
76712;SDS011;65640;43.154;25.658;2023-08-24T10:28:04;5.57;;;5.25;;
76712;SDS011;65640;43.154;25.658;2023-08-24T10:30:32;5.18;;;4.80;;
76712;SDS011;65640;43.154;25.658;2023-08-24T10:32:59;4.85;;;4.57;;
76712;SDS011;65640;43.154;25.658;2023-08-24T10:35:25;5.57;;;5.07;;
76712;SDS011;65640;43.154;25.658;2023-08-24T10:37:52;4.85;;;4.45;;
76712;SDS011;65640;43.154;25.658;2023-08-24T10:40:34;5.50;;;4.05;;
76712;SDS011;65640;43.154;25.658;2023-08-24T10:43:03;5.20;;;4.80;;
76712;SDS011;65640;43.154;25.658;2023-08-24T10:48:29;4.22;;;4.03;;
76712;SDS011;65640;43.154;25.658;2023-08-24T10:53:45;5.30;;;4.90;;
76712;SDS011;65640;43.154;25.658;2023-08-24T10:56:17;5.38;;;5.07;;
76712;SDS011;65640;43.154;25.658;2023-08-24T10:58:43;5.28;;;4.90;;
76712;SDS011;65640;43.154;25.658;2023-08-24T11:01:16;5.20;;;4.82;;
76712;SDS011;65640;43.154;25.658;2023-08-24T11:03:54;5.82;;;5.40;;
76712;SDS011;65640;43.154;25.658;2023-08-24T11:06:21;5.25;;;4.85;;
76712;SDS011;65640;43.154;25.658;2023-08-24T11:08:48;5.88;;;5.47;;
76712;SDS011;65640;43.154;25.658;2023-08-24T11:11:20;5.50;;;5.15;;
76712;SDS011;65640;43.154;25.658;2023-08-24T11:14:13;5.75;;;5.35;;
76712;SDS011;65640;43.154;25.658;2023-08-24T11:16:43;5.90;;;5.50;;
76712;SDS011;65640;43.154;25.658;2023-08-24T11:19:10;5.55;;;5.15;;
76712;SDS011;65640;43.154;25.658;2023-08-24T11:21:37;5.88;;;5.53;;
76712;SDS011;65640;43.154;25.658;2023-08-24T11:24:07;6.00;;;5.70;;
76712;SDS011;65640;43.154;25.658;2023-08-24T11:26:34;5.93;;;5.57;;
76712;SDS011;65640;43.154;25.658;2023-08-24T11:29:00;5.53;;;5.22;;
76712;SDS011;65640;43.154;25.658;2023-08-24T11:31:30;5.65;;;5.15;;
76712;SDS011;65640;43.154;25.658;2023-08-24T11:33:55;6.13;;;5.75;;
76712;SDS011;65640;43.154;25.658;2023-08-24T11:36:21;6.30;;;5.78;;
76712;SDS011;65640;43.154;25.658;2023-08-24T11:38:48;6.38;;;5.97;;
76712;SDS011;65640;43.154;25.658;2023-08-24T11:41:15;6.65;;;6.05;;
76712;SDS011;65640;43.154;25.658;2023-08-24T11:43:43;5.72;;;5.43;;
76712;SDS011;65640;43.154;25.658;2023-08-24T11:46:19;6.70;;;5.63;;
76712;SDS011;65640;43.154;25.658;2023-08-24T11:48:44;5.78;;;5.47;;
76712;SDS011;65640;43.154;25.658;2023-08-24T11:51:11;6.47;;;5.75;;
76712;SDS011;65640;43.154;25.658;2023-08-24T11:53:38;5.47;;;5.18;;
76712;SDS011;65640;43.154;25.658;2023-08-24T11:56:05;5.85;;;5.35;;
76712;SDS011;65640;43.154;25.658;2023-08-24T11:58:33;6.22;;;5.78;;
76712;SDS011;65640;43.154;25.658;2023-08-24T12:00:58;5.93;;;5.53;;
76712;SDS011;65640;43.154;25.658;2023-08-24T12:03:24;5.78;;;5.28;;
76712;SDS011;65640;43.154;25.658;2023-08-24T12:05:49;5.75;;;5.45;;
76712;SDS011;65640;43.154;25.658;2023-08-24T12:08:15;5.53;;;5.13;;
76712;SDS011;65640;43.154;25.658;2023-08-24T12:10:43;7.15;;;5.93;;
76712;SDS011;65640;43.154;25.658;2023-08-24T12:13:11;6.13;;;5.82;;
76712;SDS011;65640;43.154;25.658;2023-08-24T12:15:37;6.10;;;5.68;;
76712;SDS011;65640;43.154;25.658;2023-08-24T12:18:09;6.57;;;6.18;;
76712;SDS011;65640;43.154;25.658;2023-08-24T12:20:36;5.63;;;5.32;;
76712;SDS011;65640;43.154;25.658;2023-08-24T12:23:02;6.20;;;5.80;;
76712;SDS011;65640;43.154;25.658;2023-08-24T12:25:28;7.30;;;6.60;;
76712;SDS011;65640;43.154;25.658;2023-08-24T12:30:48;6.30;;;5.82;;
76712;SDS011;65640;43.154;25.658;2023-08-24T12:33:21;5.70;;;5.38;;
76712;SDS011;65640;43.154;25.658;2023-08-24T12:35:54;6.38;;;5.97;;
76712;SDS011;65640;43.154;25.658;2023-08-24T12:38:20;5.97;;;5.60;;
76712;SDS011;65640;43.154;25.658;2023-08-24T12:40:49;5.88;;;5.38;;
76712;SDS011;65640;43.154;25.658;2023-08-24T12:43:15;6.03;;;5.63;;
76712;SDS011;65640;43.154;25.658;2023-08-24T12:45:41;6.25;;;5.78;;
76712;SDS011;65640;43.154;25.658;2023-08-24T12:48:07;6.38;;;5.85;;
76712;SDS011;65640;43.154;25.658;2023-08-24T12:50:33;6.25;;;5.85;;
76712;SDS011;65640;43.154;25.658;2023-08-24T12:52:59;6.63;;;5.97;;
76712;SDS011;65640;43.154;25.658;2023-08-24T12:55:25;6.55;;;6.15;;
76712;SDS011;65640;43.154;25.658;2023-08-24T12:57:51;6.15;;;5.75;;
76712;SDS011;65640;43.154;25.658;2023-08-24T13:00:18;6.57;;;6.07;;
76712;SDS011;65640;43.154;25.658;2023-08-24T13:02:44;5.97;;;5.47;;
76712;SDS011;65640;43.154;25.658;2023-08-24T13:05:09;6.75;;;6.15;;
76712;SDS011;65640;43.154;25.658;2023-08-24T13:07:35;6.30;;;5.93;;
76712;SDS011;65640;43.154;25.658;2023-08-24T13:10:01;5.82;;;5.38;;
76712;SDS011;65640;43.154;25.658;2023-08-24T13:12:27;5.88;;;5.38;;
76712;SDS011;65640;43.154;25.658;2023-08-24T13:14:53;6.85;;;6.18;;
76712;SDS011;65640;43.154;25.658;2023-08-24T13:17:18;6.30;;;5.75;;
76712;SDS011;65640;43.154;25.658;2023-08-24T13:19:44;5.70;;;5.30;;
76712;SDS011;65640;43.154;25.658;2023-08-24T13:22:10;5.25;;;4.90;;
76712;SDS011;65640;43.154;25.658;2023-08-24T13:24:36;6.43;;;4.95;;
76712;SDS011;65640;43.154;25.658;2023-08-24T13:27:01;5.63;;;5.32;;
76712;SDS011;65640;43.154;25.658;2023-08-24T13:29:28;5.10;;;4.80;;
76712;SDS011;65640;43.154;25.658;2023-08-24T13:31:53;5.78;;;5.32;;
76712;SDS011;65640;43.154;25.658;2023-08-24T13:34:19;5.05;;;4.65;;
76712;SDS011;65640;43.154;25.658;2023-08-24T13:36:44;5.47;;;5.18;;
76712;SDS011;65640;43.154;25.658;2023-08-24T13:39:09;5.68;;;5.38;;
76712;SDS011;65640;43.154;25.658;2023-08-24T13:41:36;5.13;;;4.82;;
76712;SDS011;65640;43.154;25.658;2023-08-24T13:44:01;5.55;;;5.05;;
76712;SDS011;65640;43.154;25.658;2023-08-24T13:46:27;5.43;;;5.13;;
76712;SDS011;65640;43.154;25.658;2023-08-24T13:48:53;5.80;;;5.50;;
76712;SDS011;65640;43.154;25.658;2023-08-24T13:51:18;5.38;;;5.07;;
76712;SDS011;65640;43.154;25.658;2023-08-24T13:53:44;5.72;;;5.20;;
76712;SDS011;65640;43.154;25.658;2023-08-24T13:56:09;5.82;;;5.53;;
76712;SDS011;65640;43.154;25.658;2023-08-24T13:58:35;8.50;;;5.35;;
76712;SDS011;65640;43.154;25.658;2023-08-24T14:01:00;5.55;;;5.25;;
76712;SDS011;65640;43.154;25.658;2023-08-24T14:03:28;7.75;;;5.28;;
76712;SDS011;65640;43.154;25.658;2023-08-24T14:05:56;6.68;;;5.47;;
76712;SDS011;65640;43.154;25.658;2023-08-24T14:08:22;5.32;;;5.00;;
76712;SDS011;65640;43.154;25.658;2023-08-24T14:10:48;5.13;;;4.82;;
76712;SDS011;65640;43.154;25.658;2023-08-24T14:13:16;5.30;;;5.00;;
76712;SDS011;65640;43.154;25.658;2023-08-24T14:15:41;5.15;;;4.72;;
76712;SDS011;65640;43.154;25.658;2023-08-24T14:18:07;5.43;;;5.13;;
76712;SDS011;65640;43.154;25.658;2023-08-24T14:20:33;9.02;;;5.22;;
76712;SDS011;65640;43.154;25.658;2023-08-24T14:22:58;4.95;;;4.53;;
76712;SDS011;65640;43.154;25.658;2023-08-24T14:25:24;7.68;;;4.97;;
76712;SDS011;65640;43.154;25.658;2023-08-24T14:27:49;7.68;;;4.72;;
76712;SDS011;65640;43.154;25.658;2023-08-24T14:30:14;5.82;;;5.30;;
76712;SDS011;65640;43.154;25.658;2023-08-24T14:32:40;14.90;;;6.10;;
76712;SDS011;65640;43.154;25.658;2023-08-24T14:35:05;18.55;;;7.82;;
76712;SDS011;65640;43.154;25.658;2023-08-24T15:10:37;4.13;;;3.83;;
76712;SDS011;65640;43.154;25.658;2023-08-24T15:13:03;4.65;;;4.35;;
76712;SDS011;65640;43.154;25.658;2023-08-24T15:17:54;5.38;;;4.95;;
76712;SDS011;65640;43.154;25.658;2023-08-24T15:20:19;5.90;;;5.20;;
76712;SDS011;65640;43.154;25.658;2023-08-24T15:22:45;6.55;;;6.13;;
76712;SDS011;65640;43.154;25.658;2023-08-24T15:25:10;7.25;;;5.38;;
76712;SDS011;65640;43.154;25.658;2023-08-24T15:27:36;7.93;;;7.22;;
76712;SDS011;65640;43.154;25.658;2023-08-24T15:30:02;6.90;;;6.30;;
76712;SDS011;65640;43.154;25.658;2023-08-24T15:32:30;6.68;;;6.18;;
76712;SDS011;65640;43.154;25.658;2023-08-24T15:34:57;6.30;;;5.90;;
76712;SDS011;65640;43.154;25.658;2023-08-24T15:37:22;6.03;;;5.60;;
76712;SDS011;65640;43.154;25.658;2023-08-24T15:39:48;5.47;;;5.07;;
76712;SDS011;65640;43.154;25.658;2023-08-24T15:42:13;5.20;;;4.80;;
76712;SDS011;65640;43.154;25.658;2023-08-24T15:44:39;4.85;;;4.47;;
76712;SDS011;65640;43.154;25.658;2023-08-24T15:47:04;5.28;;;4.85;;
76712;SDS011;65640;43.154;25.658;2023-08-24T15:49:29;4.60;;;4.30;;
76712;SDS011;65640;43.154;25.658;2023-08-24T15:51:55;4.35;;;3.95;;
76712;SDS011;65640;43.154;25.658;2023-08-24T15:54:20;5.00;;;4.70;;
76712;SDS011;65640;43.154;25.658;2023-08-24T15:56:48;4.60;;;4.28;;
76712;SDS011;65640;43.154;25.658;2023-08-24T15:59:19;4.05;;;3.85;;
76712;SDS011;65640;43.154;25.658;2023-08-24T16:01:45;4.53;;;4.22;;
76712;SDS011;65640;43.154;25.658;2023-08-24T16:04:12;4.45;;;4.00;;
76712;SDS011;65640;43.154;25.658;2023-08-24T16:06:40;3.58;;;3.35;;
76712;SDS011;65640;43.154;25.658;2023-08-24T16:09:06;4.07;;;3.78;;
76712;SDS011;65640;43.154;25.658;2023-08-24T16:11:31;4.40;;;3.97;;